Estación Meteorológica Peña el Pijo (Robertgarden) [ 12/11/18 10:40:36 CET ]

Fecha Hora Presion(HPa) Temp (°C) Humedad % Rocio (°C) Viento ( m/s) Direccion Lluvia 1Hora(mm) Lluvia 24H(mm) LLuvia Total(mm)
2018-Feb-21 01:01:51 1001.900 3.2 75 -0.8         82.36
2018-Feb-21 02:03:08 1001.000 2.9 75 -1.1         82.36
2018-Feb-21 03:01:44 1000.300 1.6 76 -2.2         82.36
2018-Feb-21 04:01:56 999.100 1.3 77 -2.3         82.36
2018-Feb-21 05:01:55 998.500 1.2 77 -2.4         82.36
2018-Feb-21 06:02:04 998.400 0.2 78 -3.2         82.36
2018-Feb-21 07:01:57 998.700 -0.9 78 -4.3         82.36
2018-Feb-21 08:01:50 998.300 -1.5 80 -4.5         82.36
2018-Feb-21 09:02:04 997.500 0.4 82 -2.3         82.36
2018-Feb-21 10:01:47 997.400 6.5 72 1.8         82.36
2018-Feb-21 11:02:01 997.000 8.9 53 -0.2 4.3 E     82.36
2018-Feb-21 12:02:00 996.600 6.6 54 -2.1 0.7 NNE     82.36
2018-Feb-21 13:01:49 996.000 7.0 52 -2.2 2.2 NE     82.36
2018-Feb-21 14:01:48 995.200 8.9 43 -3.1         82.36
2018-Feb-21 15:01:32 994.500 9.0 39 -4.3         82.36
2018-Feb-21 16:01:59 994.700 6.9 46 -4.0         82.36
2018-Feb-21 17:02:02 994.700 7.4 45 -3.8         82.36
2018-Feb-21 18:01:47 994.900 6.6 45 -4.6         82.36
2018-Feb-21 19:01:45 995.200 4.7 51 -4.9         82.36
2018-Feb-21 20:01:50 995.500 4.2 55 -4.1         82.36
2018-Feb-21 21:01:47 995.800 4.4 58 -3.2         82.36
2018-Feb-21 22:01:40 996.500 4.6 64 -1.7         82.36
2018-Feb-21 23:01:44 996.800 4.0 69 -1.2         82.36

Temperatura Máxima:    Temperatura Mínima:-1°
Presión Máxima:1001.900 Hpa    Presión Mínima:994.500 Hpa


Volver